sensor_id;sensor_type;location;lat;lon;timestamp;P1;durP1;ratioP1;P2;durP2;ratioP2
583;SDS011;27024;54.068;12.116;2023-09-12T00:01:12;20.42;;;11.00;;
583;SDS011;27024;54.068;12.116;2023-09-12T00:03:39;21.83;;;11.45;;
583;SDS011;27024;54.068;12.116;2023-09-12T00:06:06;19.90;;;10.65;;
583;SDS011;27024;54.068;12.116;2023-09-12T00:08:32;22.33;;;10.75;;
583;SDS011;27024;54.068;12.116;2023-09-12T00:11:03;22.50;;;10.48;;
583;SDS011;27024;54.068;12.116;2023-09-12T00:13:32;21.17;;;10.32;;
583;SDS011;27024;54.068;12.116;2023-09-12T00:15:59;25.08;;;11.50;;
583;SDS011;27024;54.068;12.116;2023-09-12T00:18:26;25.02;;;10.07;;
583;SDS011;27024;54.068;12.116;2023-09-12T00:20:53;22.50;;;10.32;;
583;SDS011;27024;54.068;12.116;2023-09-12T00:23:20;26.60;;;11.48;;
583;SDS011;27024;54.068;12.116;2023-09-12T00:25:49;20.23;;;11.13;;
583;SDS011;27024;54.068;12.116;2023-09-12T00:28:18;26.27;;;11.73;;
583;SDS011;27024;54.068;12.116;2023-09-12T00:30:45;26.52;;;11.30;;
583;SDS011;27024;54.068;12.116;2023-09-12T00:33:13;31.08;;;11.73;;
583;SDS011;27024;54.068;12.116;2023-09-12T00:35:40;24.52;;;11.52;;
583;SDS011;27024;54.068;12.116;2023-09-12T00:38:08;24.88;;;11.32;;
583;SDS011;27024;54.068;12.116;2023-09-12T00:40:35;23.88;;;11.45;;
583;SDS011;27024;54.068;12.116;2023-09-12T00:43:04;22.95;;;11.88;;
583;SDS011;27024;54.068;12.116;2023-09-12T00:45:31;18.30;;;10.63;;
583;SDS011;27024;54.068;12.116;2023-09-12T00:47:58;21.60;;;10.88;;
583;SDS011;27024;54.068;12.116;2023-09-12T00:50:26;29.27;;;11.80;;
583;SDS011;27024;54.068;12.116;2023-09-12T00:52:54;16.98;;;10.40;;
583;SDS011;27024;54.068;12.116;2023-09-12T00:55:21;23.90;;;11.30;;
583;SDS011;27024;54.068;12.116;2023-09-12T00:57:48;24.20;;;10.00;;
583;SDS011;27024;54.068;12.116;2023-09-12T01:00:16;22.55;;;10.75;;
583;SDS011;27024;54.068;12.116;2023-09-12T01:02:43;19.48;;;10.95;;
583;SDS011;27024;54.068;12.116;2023-09-12T01:05:15;23.45;;;10.80;;
583;SDS011;27024;54.068;12.116;2023-09-12T01:07:43;22.33;;;10.93;;
583;SDS011;27024;54.068;12.116;2023-09-12T01:10:10;23.02;;;10.52;;
583;SDS011;27024;54.068;12.116;2023-09-12T01:12:37;22.80;;;10.60;;
583;SDS011;27024;54.068;12.116;2023-09-12T01:15:05;22.40;;;10.18;;
583;SDS011;27024;54.068;12.116;2023-09-12T01:17:36;17.88;;;9.68;;
583;SDS011;27024;54.068;12.116;2023-09-12T01:20:03;24.65;;;10.23;;
583;SDS011;27024;54.068;12.116;2023-09-12T01:27:48;19.33;;;9.85;;
583;SDS011;27024;54.068;12.116;2023-09-12T01:30:18;23.02;;;9.65;;
583;SDS011;27024;54.068;12.116;2023-09-12T01:32:48;17.33;;;9.52;;
583;SDS011;27024;54.068;12.116;2023-09-12T01:35:16;21.25;;;10.02;;
583;SDS011;27024;54.068;12.116;2023-09-12T01:37:43;26.00;;;10.77;;
583;SDS011;27024;54.068;12.116;2023-09-12T01:40:09;23.92;;;9.82;;
583;SDS011;27024;54.068;12.116;2023-09-12T01:42:37;23.88;;;9.82;;
583;SDS011;27024;54.068;12.116;2023-09-12T01:45:13;23.50;;;9.65;;
583;SDS011;27024;54.068;12.116;2023-09-12T01:47:42;28.17;;;11.95;;
583;SDS011;27024;54.068;12.116;2023-09-12T01:50:12;24.23;;;9.65;;
583;SDS011;27024;54.068;12.116;2023-09-12T01:52:40;19.02;;;8.40;;
583;SDS011;27024;54.068;12.116;2023-09-12T01:55:08;20.52;;;9.82;;
583;SDS011;27024;54.068;12.116;2023-09-12T01:57:37;20.67;;;9.57;;
583;SDS011;27024;54.068;12.116;2023-09-12T02:00:04;20.77;;;8.93;;
583;SDS011;27024;54.068;12.116;2023-09-12T02:02:32;21.80;;;9.25;;
583;SDS011;27024;54.068;12.116;2023-09-12T02:07:26;20.80;;;9.77;;
583;SDS011;27024;54.068;12.116;2023-09-12T02:09:56;20.52;;;9.50;;
583;SDS011;27024;54.068;12.116;2023-09-12T02:12:23;21.85;;;10.18;;
583;SDS011;27024;54.068;12.116;2023-09-12T02:14:50;19.23;;;9.20;;
583;SDS011;27024;54.068;12.116;2023-09-12T02:17:17;20.02;;;9.30;;
583;SDS011;27024;54.068;12.116;2023-09-12T02:19:46;17.70;;;8.70;;
583;SDS011;27024;54.068;12.116;2023-09-12T02:22:14;20.48;;;9.73;;
583;SDS011;27024;54.068;12.116;2023-09-12T02:24:41;20.98;;;9.20;;
583;SDS011;27024;54.068;12.116;2023-09-12T02:27:08;21.73;;;9.95;;
583;SDS011;27024;54.068;12.116;2023-09-12T02:29:34;20.55;;;8.75;;
583;SDS011;27024;54.068;12.116;2023-09-12T02:32:01;17.67;;;9.32;;
583;SDS011;27024;54.068;12.116;2023-09-12T02:34:29;20.95;;;8.70;;
583;SDS011;27024;54.068;12.116;2023-09-12T02:36:56;21.90;;;9.63;;
583;SDS011;27024;54.068;12.116;2023-09-12T02:39:22;22.08;;;9.48;;
583;SDS011;27024;54.068;12.116;2023-09-12T02:41:49;23.33;;;9.20;;
583;SDS011;27024;54.068;12.116;2023-09-12T02:44:16;21.90;;;8.68;;
583;SDS011;27024;54.068;12.116;2023-09-12T02:46:43;24.95;;;9.10;;
583;SDS011;27024;54.068;12.116;2023-09-12T02:49:11;22.42;;;10.82;;
583;SDS011;27024;54.068;12.116;2023-09-12T02:51:38;18.67;;;9.27;;
583;SDS011;27024;54.068;12.116;2023-09-12T02:54:05;19.35;;;8.60;;
583;SDS011;27024;54.068;12.116;2023-09-12T02:56:32;20.00;;;9.30;;
583;SDS011;27024;54.068;12.116;2023-09-12T02:58:59;22.27;;;9.45;;
583;SDS011;27024;54.068;12.116;2023-09-12T03:01:26;17.67;;;9.18;;
583;SDS011;27024;54.068;12.116;2023-09-12T03:03:54;28.42;;;10.32;;
583;SDS011;27024;54.068;12.116;2023-09-12T03:06:21;19.80;;;9.85;;
583;SDS011;27024;54.068;12.116;2023-09-12T03:08:48;26.50;;;10.00;;
583;SDS011;27024;54.068;12.116;2023-09-12T03:11:15;23.73;;;10.45;;
583;SDS011;27024;54.068;12.116;2023-09-12T03:13:42;22.63;;;13.05;;
583;SDS011;27024;54.068;12.116;2023-09-12T03:16:12;26.42;;;12.45;;
583;SDS011;27024;54.068;12.116;2023-09-12T03:21:07;28.40;;;14.35;;
583;SDS011;27024;54.068;12.116;2023-09-12T03:23:34;26.63;;;16.05;;
583;SDS011;27024;54.068;12.116;2023-09-12T03:26:05;27.42;;;15.23;;
583;SDS011;27024;54.068;12.116;2023-09-12T03:28:32;21.92;;;12.88;;
583;SDS011;27024;54.068;12.116;2023-09-12T03:31:06;25.85;;;14.68;;
583;SDS011;27024;54.068;12.116;2023-09-12T03:33:38;32.72;;;19.13;;
583;SDS011;27024;54.068;12.116;2023-09-12T03:36:06;33.17;;;17.77;;
583;SDS011;27024;54.068;12.116;2023-09-12T03:38:34;32.00;;;18.70;;
583;SDS011;27024;54.068;12.116;2023-09-12T03:41:01;27.33;;;18.88;;
583;SDS011;27024;54.068;12.116;2023-09-12T03:43:30;31.60;;;19.63;;
583;SDS011;27024;54.068;12.116;2023-09-12T03:45:57;37.13;;;21.30;;
583;SDS011;27024;54.068;12.116;2023-09-12T03:48:24;34.08;;;22.88;;
583;SDS011;27024;54.068;12.116;2023-09-12T03:50:51;38.20;;;23.02;;
583;SDS011;27024;54.068;12.116;2023-09-12T03:53:18;40.05;;;23.33;;
583;SDS011;27024;54.068;12.116;2023-09-12T03:55:45;36.67;;;21.67;;
583;SDS011;27024;54.068;12.116;2023-09-12T03:58:12;35.33;;;22.50;;
583;SDS011;27024;54.068;12.116;2023-09-12T04:00:39;36.13;;;22.45;;
583;SDS011;27024;54.068;12.116;2023-09-12T04:03:06;34.30;;;21.00;;
583;SDS011;27024;54.068;12.116;2023-09-12T04:05:33;33.05;;;20.52;;
583;SDS011;27024;54.068;12.116;2023-09-12T04:08:00;25.65;;;18.33;;
583;SDS011;27024;54.068;12.116;2023-09-12T04:10:26;30.42;;;19.38;;
583;SDS011;27024;54.068;12.116;2023-09-12T04:12:53;28.80;;;19.25;;
583;SDS011;27024;54.068;12.116;2023-09-12T04:15:20;35.85;;;20.27;;
583;SDS011;27024;54.068;12.116;2023-09-12T04:17:47;31.92;;;20.98;;
583;SDS011;27024;54.068;12.116;2023-09-12T04:20:14;34.92;;;20.90;;
583;SDS011;27024;54.068;12.116;2023-09-12T04:22:42;37.08;;;22.98;;
583;SDS011;27024;54.068;12.116;2023-09-12T04:25:09;35.15;;;22.85;;
583;SDS011;27024;54.068;12.116;2023-09-12T04:27:35;33.42;;;21.05;;
583;SDS011;27024;54.068;12.116;2023-09-12T04:30:03;31.33;;;19.42;;
583;SDS011;27024;54.068;12.116;2023-09-12T04:32:30;27.10;;;18.58;;
583;SDS011;27024;54.068;12.116;2023-09-12T04:34:57;30.60;;;18.60;;
583;SDS011;27024;54.068;12.116;2023-09-12T04:37:24;33.50;;;21.70;;
583;SDS011;27024;54.068;12.116;2023-09-12T04:39:51;36.75;;;21.85;;
583;SDS011;27024;54.068;12.116;2023-09-12T04:42:18;45.47;;;26.70;;
583;SDS011;27024;54.068;12.116;2023-09-12T04:44:45;74.60;;;39.42;;
583;SDS011;27024;54.068;12.116;2023-09-12T04:47:12;91.68;;;47.50;;
583;SDS011;27024;54.068;12.116;2023-09-12T04:49:39;87.60;;;43.55;;
583;SDS011;27024;54.068;12.116;2023-09-12T04:52:06;88.03;;;44.45;;
583;SDS011;27024;54.068;12.116;2023-09-12T04:54:33;97.75;;;48.00;;
583;SDS011;27024;54.068;12.116;2023-09-12T04:57:00;83.47;;;41.20;;
583;SDS011;27024;54.068;12.116;2023-09-12T04:59:27;88.03;;;43.55;;
583;SDS011;27024;54.068;12.116;2023-09-12T05:01:54;90.47;;;43.05;;
583;SDS011;27024;54.068;12.116;2023-09-12T05:04:20;96.68;;;46.40;;
583;SDS011;27024;54.068;12.116;2023-09-12T05:06:47;97.45;;;47.35;;
583;SDS011;27024;54.068;12.116;2023-09-12T05:09:15;94.65;;;45.58;;
583;SDS011;27024;54.068;12.116;2023-09-12T05:11:42;94.18;;;46.22;;
583;SDS011;27024;54.068;12.116;2023-09-12T05:14:10;95.20;;;46.05;;
583;SDS011;27024;54.068;12.116;2023-09-12T05:16:37;86.28;;;43.63;;
583;SDS011;27024;54.068;12.116;2023-09-12T05:19:04;97.18;;;46.45;;
583;SDS011;27024;54.068;12.116;2023-09-12T05:21:31;97.40;;;45.63;;
583;SDS011;27024;54.068;12.116;2023-09-12T05:23:58;99.40;;;46.50;;
583;SDS011;27024;54.068;12.116;2023-09-12T05:26:25;88.13;;;43.88;;
583;SDS011;27024;54.068;12.116;2023-09-12T05:28:52;92.47;;;44.55;;
583;SDS011;27024;54.068;12.116;2023-09-12T05:31:19;87.53;;;42.65;;
583;SDS011;27024;54.068;12.116;2023-09-12T05:33:46;99.22;;;45.15;;
583;SDS011;27024;54.068;12.116;2023-09-12T05:36:13;89.75;;;42.38;;
583;SDS011;27024;54.068;12.116;2023-09-12T05:38:40;87.25;;;42.22;;
583;SDS011;27024;54.068;12.116;2023-09-12T05:41:07;92.95;;;43.22;;
583;SDS011;27024;54.068;12.116;2023-09-12T05:43:34;91.53;;;43.53;;
583;SDS011;27024;54.068;12.116;2023-09-12T05:46:01;85.47;;;41.25;;
583;SDS011;27024;54.068;12.116;2023-09-12T05:48:28;89.32;;;41.08;;
583;SDS011;27024;54.068;12.116;2023-09-12T05:50:55;82.07;;;39.78;;
583;SDS011;27024;54.068;12.116;2023-09-12T05:53:22;73.57;;;38.95;;
583;SDS011;27024;54.068;12.116;2023-09-12T05:55:49;79.32;;;39.05;;
583;SDS011;27024;54.068;12.116;2023-09-12T05:58:16;70.07;;;37.53;;
583;SDS011;27024;54.068;12.116;2023-09-12T06:00:43;72.03;;;37.20;;
583;SDS011;27024;54.068;12.116;2023-09-12T06:03:10;66.88;;;35.13;;
583;SDS011;27024;54.068;12.116;2023-09-12T06:05:42;59.45;;;33.20;;
583;SDS011;27024;54.068;12.116;2023-09-12T06:08:08;68.50;;;33.45;;
583;SDS011;27024;54.068;12.116;2023-09-12T06:10:36;54.25;;;31.00;;
583;SDS011;27024;54.068;12.116;2023-09-12T06:13:03;58.50;;;30.52;;
583;SDS011;27024;54.068;12.116;2023-09-12T06:15:29;57.08;;;30.98;;
583;SDS011;27024;54.068;12.116;2023-09-12T06:17:56;52.60;;;30.20;;
583;SDS011;27024;54.068;12.116;2023-09-12T06:20:23;53.97;;;29.50;;
583;SDS011;27024;54.068;12.116;2023-09-12T06:22:50;49.60;;;28.10;;
583;SDS011;27024;54.068;12.116;2023-09-12T06:25:17;53.65;;;28.98;;
583;SDS011;27024;54.068;12.116;2023-09-12T06:27:44;45.88;;;26.90;;
583;SDS011;27024;54.068;12.116;2023-09-12T06:30:13;49.72;;;28.23;;
583;SDS011;27024;54.068;12.116;2023-09-12T06:32:41;45.05;;;26.58;;
583;SDS011;27024;54.068;12.116;2023-09-12T06:35:09;46.30;;;27.05;;
583;SDS011;27024;54.068;12.116;2023-09-12T06:37:38;44.35;;;27.08;;
583;SDS011;27024;54.068;12.116;2023-09-12T06:40:06;42.88;;;25.85;;
583;SDS011;27024;54.068;12.116;2023-09-12T06:42:34;44.50;;;27.38;;
583;SDS011;27024;54.068;12.116;2023-09-12T06:45:01;45.88;;;26.67;;
583;SDS011;27024;54.068;12.116;2023-09-12T06:47:28;42.55;;;26.73;;
583;SDS011;27024;54.068;12.116;2023-09-12T06:49:54;43.42;;;26.67;;
583;SDS011;27024;54.068;12.116;2023-09-12T06:52:22;45.90;;;27.63;;
583;SDS011;27024;54.068;12.116;2023-09-12T06:54:49;45.63;;;27.63;;
583;SDS011;27024;54.068;12.116;2023-09-12T06:57:16;44.35;;;27.27;;
583;SDS011;27024;54.068;12.116;2023-09-12T06:59:42;44.08;;;27.65;;
583;SDS011;27024;54.068;12.116;2023-09-12T07:02:09;47.90;;;29.33;;
583;SDS011;27024;54.068;12.116;2023-09-12T07:04:38;48.05;;;29.88;;
583;SDS011;27024;54.068;12.116;2023-09-12T07:07:04;51.53;;;31.48;;
583;SDS011;27024;54.068;12.116;2023-09-12T07:09:31;47.97;;;30.30;;
583;SDS011;27024;54.068;12.116;2023-09-12T07:12:00;52.05;;;31.38;;
583;SDS011;27024;54.068;12.116;2023-09-12T07:14:26;48.25;;;30.45;;
583;SDS011;27024;54.068;12.116;2023-09-12T07:16:53;52.83;;;31.75;;
583;SDS011;27024;54.068;12.116;2023-09-12T07:19:20;48.78;;;30.20;;
583;SDS011;27024;54.068;12.116;2023-09-12T07:21:47;51.65;;;31.38;;
583;SDS011;27024;54.068;12.116;2023-09-12T07:24:14;46.80;;;30.15;;
583;SDS011;27024;54.068;12.116;2023-09-12T07:26:41;48.85;;;29.67;;
583;SDS011;27024;54.068;12.116;2023-09-12T07:29:08;47.45;;;29.80;;
583;SDS011;27024;54.068;12.116;2023-09-12T07:31:35;47.25;;;30.25;;
583;SDS011;27024;54.068;12.116;2023-09-12T07:34:02;48.58;;;29.58;;
583;SDS011;27024;54.068;12.116;2023-09-12T07:36:32;50.15;;;30.33;;
583;SDS011;27024;54.068;12.116;2023-09-12T07:38:59;48.72;;;29.88;;
583;SDS011;27024;54.068;12.116;2023-09-12T07:41:26;49.95;;;31.00;;
583;SDS011;27024;54.068;12.116;2023-09-12T07:43:52;47.47;;;30.35;;
583;SDS011;27024;54.068;12.116;2023-09-12T07:46:19;48.97;;;28.77;;
583;SDS011;27024;54.068;12.116;2023-09-12T07:48:47;46.92;;;28.35;;
583;SDS011;27024;54.068;12.116;2023-09-12T07:51:14;45.97;;;29.27;;
583;SDS011;27024;54.068;12.116;2023-09-12T07:53:44;44.47;;;28.65;;
583;SDS011;27024;54.068;12.116;2023-09-12T07:56:11;46.83;;;28.67;;
583;SDS011;27024;54.068;12.116;2023-09-12T07:58:38;44.08;;;27.67;;
583;SDS011;27024;54.068;12.116;2023-09-12T08:01:06;42.03;;;27.50;;
583;SDS011;27024;54.068;12.116;2023-09-12T08:03:34;41.88;;;25.83;;
583;SDS011;27024;54.068;12.116;2023-09-12T08:06:03;40.92;;;25.48;;
583;SDS011;27024;54.068;12.116;2023-09-12T08:08:30;42.15;;;25.23;;
583;SDS011;27024;54.068;12.116;2023-09-12T08:10:57;39.17;;;24.27;;
583;SDS011;27024;54.068;12.116;2023-09-12T08:13:27;42.45;;;24.98;;
583;SDS011;27024;54.068;12.116;2023-09-12T08:15:55;40.78;;;26.67;;
583;SDS011;27024;54.068;12.116;2023-09-12T08:18:25;41.22;;;25.80;;
583;SDS011;27024;54.068;12.116;2023-09-12T08:20:55;43.75;;;26.67;;
583;SDS011;27024;54.068;12.116;2023-09-12T08:23:22;39.17;;;25.65;;
583;SDS011;27024;54.068;12.116;2023-09-12T08:25:49;41.42;;;26.75;;
583;SDS011;27024;54.068;12.116;2023-09-12T08:28:16;35.20;;;23.27;;
583;SDS011;27024;54.068;12.116;2023-09-12T08:30:44;37.20;;;25.45;;
583;SDS011;27024;54.068;12.116;2023-09-12T08:33:13;38.25;;;26.02;;
583;SDS011;27024;54.068;12.116;2023-09-12T08:35:40;38.60;;;26.65;;
583;SDS011;27024;54.068;12.116;2023-09-12T08:38:06;34.20;;;24.95;;
583;SDS011;27024;54.068;12.116;2023-09-12T08:40:34;36.17;;;25.38;;
583;SDS011;27024;54.068;12.116;2023-09-12T08:43:02;37.58;;;26.13;;
583;SDS011;27024;54.068;12.116;2023-09-12T08:45:30;44.60;;;27.63;;
583;SDS011;27024;54.068;12.116;2023-09-12T08:47:58;41.65;;;27.33;;
583;SDS011;27024;54.068;12.116;2023-09-12T08:50:29;42.97;;;26.80;;
583;SDS011;27024;54.068;12.116;2023-09-12T08:52:59;33.58;;;24.02;;
583;SDS011;27024;54.068;12.116;2023-09-12T08:55:35;36.15;;;24.27;;
583;SDS011;27024;54.068;12.116;2023-09-12T08:58:04;32.35;;;22.98;;
583;SDS011;27024;54.068;12.116;2023-09-12T09:00:32;35.92;;;23.08;;
583;SDS011;27024;54.068;12.116;2023-09-12T09:03:00;30.10;;;20.95;;
583;SDS011;27024;54.068;12.116;2023-09-12T09:05:28;29.08;;;19.20;;
583;SDS011;27024;54.068;12.116;2023-09-12T09:07:56;26.17;;;17.23;;
583;SDS011;27024;54.068;12.116;2023-09-12T09:10:24;26.98;;;16.95;;
583;SDS011;27024;54.068;12.116;2023-09-12T09:15:36;18.05;;;12.48;;
583;SDS011;27024;54.068;12.116;2023-09-12T09:18:08;18.05;;;10.00;;
583;SDS011;27024;54.068;12.116;2023-09-12T09:20:38;10.13;;;7.40;;
583;SDS011;27024;54.068;12.116;2023-09-12T09:23:07;10.27;;;6.53;;
583;SDS011;27024;54.068;12.116;2023-09-12T09:25:37;10.23;;;5.80;;
583;SDS011;27024;54.068;12.116;2023-09-12T09:28:16;11.05;;;7.10;;
583;SDS011;27024;54.068;12.116;2023-09-12T09:30:48;11.07;;;6.95;;
583;SDS011;27024;54.068;12.116;2023-09-12T09:33:21;10.20;;;6.72;;
583;SDS011;27024;54.068;12.116;2023-09-12T09:35:49;11.88;;;7.55;;
583;SDS011;27024;54.068;12.116;2023-09-12T09:38:18;12.70;;;8.48;;
583;SDS011;27024;54.068;12.116;2023-09-12T09:40:46;14.65;;;8.48;;
583;SDS011;27024;54.068;12.116;2023-09-12T09:43:14;12.18;;;8.65;;
583;SDS011;27024;54.068;12.116;2023-09-12T09:45:46;13.27;;;8.73;;
583;SDS011;27024;54.068;12.116;2023-09-12T09:48:17;14.20;;;8.57;;
583;SDS011;27024;54.068;12.116;2023-09-12T09:50:48;15.55;;;9.25;;
583;SDS011;27024;54.068;12.116;2023-09-12T09:53:15;14.25;;;8.88;;
583;SDS011;27024;54.068;12.116;2023-09-12T09:55:42;15.23;;;8.65;;
583;SDS011;27024;54.068;12.116;2023-09-12T09:58:11;13.27;;;8.75;;
583;SDS011;27024;54.068;12.116;2023-09-12T10:00:45;12.98;;;8.93;;
583;SDS011;27024;54.068;12.116;2023-09-12T10:03:15;14.13;;;9.07;;
583;SDS011;27024;54.068;12.116;2023-09-12T10:05:45;14.40;;;8.85;;
583;SDS011;27024;54.068;12.116;2023-09-12T10:08:14;13.65;;;8.77;;
583;SDS011;27024;54.068;12.116;2023-09-12T10:10:43;16.95;;;10.43;;
583;SDS011;27024;54.068;12.116;2023-09-12T10:13:11;14.52;;;9.55;;
583;SDS011;27024;54.068;12.116;2023-09-12T10:15:40;15.50;;;11.60;;
583;SDS011;27024;54.068;12.116;2023-09-12T10:18:13;16.33;;;11.45;;
583;SDS011;27024;54.068;12.116;2023-09-12T10:20:57;19.42;;;11.70;;
583;SDS011;27024;54.068;12.116;2023-09-12T10:23:34;19.08;;;11.52;;
583;SDS011;27024;54.068;12.116;2023-09-12T10:26:10;23.55;;;11.90;;
583;SDS011;27024;54.068;12.116;2023-09-12T10:28:42;19.08;;;12.60;;
583;SDS011;27024;54.068;12.116;2023-09-12T10:31:12;17.50;;;11.43;;
583;SDS011;27024;54.068;12.116;2023-09-12T10:33:39;17.38;;;12.13;;
583;SDS011;27024;54.068;12.116;2023-09-12T10:36:08;18.42;;;12.15;;
583;SDS011;27024;54.068;12.116;2023-09-12T10:38:45;16.67;;;12.50;;
583;SDS011;27024;54.068;12.116;2023-09-12T10:41:15;20.67;;;14.07;;
583;SDS011;27024;54.068;12.116;2023-09-12T10:43:43;19.13;;;13.48;;
583;SDS011;27024;54.068;12.116;2023-09-12T10:46:16;20.17;;;13.55;;
583;SDS011;27024;54.068;12.116;2023-09-12T10:48:44;26.00;;;17.30;;
583;SDS011;27024;54.068;12.116;2023-09-12T10:51:11;27.40;;;18.13;;
583;SDS011;27024;54.068;12.116;2023-09-12T10:53:49;25.73;;;18.52;;
583;SDS011;27024;54.068;12.116;2023-09-12T10:56:18;28.45;;;19.17;;
583;SDS011;27024;54.068;12.116;2023-09-12T11:01:31;29.17;;;20.92;;
583;SDS011;27024;54.068;12.116;2023-09-12T11:06:50;29.00;;;20.08;;
583;SDS011;27024;54.068;12.116;2023-09-12T11:09:17;27.90;;;19.50;;
583;SDS011;27024;54.068;12.116;2023-09-12T11:11:49;25.15;;;18.38;;
583;SDS011;27024;54.068;12.116;2023-09-12T11:14:29;27.55;;;18.17;;
583;SDS011;27024;54.068;12.116;2023-09-12T11:19:45;25.83;;;18.25;;
583;SDS011;27024;54.068;12.116;2023-09-12T11:22:23;24.52;;;17.33;;
583;SDS011;27024;54.068;12.116;2023-09-12T11:24:54;28.27;;;18.70;;
583;SDS011;27024;54.068;12.116;2023-09-12T11:27:25;25.95;;;18.17;;
583;SDS011;27024;54.068;12.116;2023-09-12T11:30:11;26.73;;;16.88;;
583;SDS011;27024;54.068;12.116;2023-09-12T11:32:38;27.52;;;17.50;;
583;SDS011;27024;54.068;12.116;2023-09-12T11:35:08;21.60;;;16.08;;
583;SDS011;27024;54.068;12.116;2023-09-12T11:37:36;20.23;;;13.95;;
583;SDS011;27024;54.068;12.116;2023-09-12T11:40:23;17.95;;;12.60;;
583;SDS011;27024;54.068;12.116;2023-09-12T11:43:22;16.38;;;11.95;;
583;SDS011;27024;54.068;12.116;2023-09-12T11:45:50;16.92;;;12.60;;
583;SDS011;27024;54.068;12.116;2023-09-12T11:48:19;19.23;;;14.65;;
583;SDS011;27024;54.068;12.116;2023-09-12T11:50:56;19.63;;;14.27;;
583;SDS011;27024;54.068;12.116;2023-09-12T11:53:24;21.73;;;16.08;;
583;SDS011;27024;54.068;12.116;2023-09-12T11:55:54;18.73;;;14.30;;
583;SDS011;27024;54.068;12.116;2023-09-12T11:58:24;18.45;;;14.35;;
583;SDS011;27024;54.068;12.116;2023-09-12T12:00:52;16.73;;;13.50;;
583;SDS011;27024;54.068;12.116;2023-09-12T12:03:24;17.13;;;12.20;;
583;SDS011;27024;54.068;12.116;2023-09-12T12:05:53;16.08;;;10.68;;
583;SDS011;27024;54.068;12.116;2023-09-12T12:08:21;13.63;;;9.65;;
583;SDS011;27024;54.068;12.116;2023-09-12T12:10:58;20.40;;;11.27;;
583;SDS011;27024;54.068;12.116;2023-09-12T12:13:25;13.93;;;9.73;;
583;SDS011;27024;54.068;12.116;2023-09-12T12:15:55;14.55;;;9.23;;
583;SDS011;27024;54.068;12.116;2023-09-12T12:18:23;12.02;;;8.13;;
583;SDS011;27024;54.068;12.116;2023-09-12T12:20:50;14.93;;;9.45;;
583;SDS011;27024;54.068;12.116;2023-09-12T12:23:17;14.85;;;8.80;;
583;SDS011;27024;54.068;12.116;2023-09-12T12:25:44;15.00;;;9.55;;
583;SDS011;27024;54.068;12.116;2023-09-12T12:28:11;15.02;;;9.60;;
583;SDS011;27024;54.068;12.116;2023-09-12T12:30:38;12.95;;;9.02;;
583;SDS011;27024;54.068;12.116;2023-09-12T12:33:09;15.02;;;8.27;;
583;SDS011;27024;54.068;12.116;2023-09-12T12:36:03;12.60;;;7.53;;
583;SDS011;27024;54.068;12.116;2023-09-12T12:38:33;12.98;;;7.47;;
583;SDS011;27024;54.068;12.116;2023-09-12T12:41:22;13.27;;;9.23;;
583;SDS011;27024;54.068;12.116;2023-09-12T12:43:52;10.55;;;7.53;;
583;SDS011;27024;54.068;12.116;2023-09-12T12:46:20;13.90;;;8.95;;
583;SDS011;27024;54.068;12.116;2023-09-12T12:48:48;12.68;;;8.35;;
583;SDS011;27024;54.068;12.116;2023-09-12T12:51:22;14.13;;;8.23;;
583;SDS011;27024;54.068;12.116;2023-09-12T12:53:51;12.07;;;8.43;;
583;SDS011;27024;54.068;12.116;2023-09-12T12:56:21;14.10;;;8.23;;
583;SDS011;27024;54.068;12.116;2023-09-12T12:58:58;12.07;;;7.65;;
583;SDS011;27024;54.068;12.116;2023-09-12T13:01:29;11.68;;;7.50;;
583;SDS011;27024;54.068;12.116;2023-09-12T13:03:56;10.35;;;7.20;;
583;SDS011;27024;54.068;12.116;2023-09-12T13:06:23;10.25;;;6.97;;
583;SDS011;27024;54.068;12.116;2023-09-12T13:08:52;12.45;;;7.30;;
583;SDS011;27024;54.068;12.116;2023-09-12T13:11:19;10.70;;;6.60;;
583;SDS011;27024;54.068;12.116;2023-09-12T13:13:47;9.55;;;6.38;;
583;SDS011;27024;54.068;12.116;2023-09-12T13:18:45;10.70;;;7.00;;
583;SDS011;27024;54.068;12.116;2023-09-12T13:21:12;11.23;;;7.63;;
583;SDS011;27024;54.068;12.116;2023-09-12T13:23:39;11.50;;;8.10;;
583;SDS011;27024;54.068;12.116;2023-09-12T13:26:07;9.82;;;7.25;;
583;SDS011;27024;54.068;12.116;2023-09-12T13:28:35;10.40;;;6.60;;
583;SDS011;27024;54.068;12.116;2023-09-12T13:31:03;12.65;;;7.95;;
583;SDS011;27024;54.068;12.116;2023-09-12T13:33:30;11.85;;;6.80;;
583;SDS011;27024;54.068;12.116;2023-09-12T13:35:58;10.98;;;6.97;;
583;SDS011;27024;54.068;12.116;2023-09-12T13:38:25;10.68;;;6.72;;
583;SDS011;27024;54.068;12.116;2023-09-12T13:40:51;11.70;;;6.82;;
583;SDS011;27024;54.068;12.116;2023-09-12T13:43:18;11.13;;;7.00;;
583;SDS011;27024;54.068;12.116;2023-09-12T13:45:46;9.40;;;6.28;;
583;SDS011;27024;54.068;12.116;2023-09-12T13:48:13;12.52;;;6.28;;
583;SDS011;27024;54.068;12.116;2023-09-12T13:50:41;10.40;;;6.55;;
583;SDS011;27024;54.068;12.116;2023-09-12T13:53:10;11.68;;;7.20;;
583;SDS011;27024;54.068;12.116;2023-09-12T13:55:37;10.52;;;6.60;;
583;SDS011;27024;54.068;12.116;2023-09-12T13:58:24;10.68;;;5.75;;
583;SDS011;27024;54.068;12.116;2023-09-12T14:01:01;13.52;;;6.68;;
583;SDS011;27024;54.068;12.116;2023-09-12T14:03:30;12.75;;;6.28;;
583;SDS011;27024;54.068;12.116;2023-09-12T14:05:59;9.93;;;6.53;;
583;SDS011;27024;54.068;12.116;2023-09-12T14:08:26;9.38;;;6.38;;
583;SDS011;27024;54.068;12.116;2023-09-12T14:10:54;10.65;;;6.50;;
583;SDS011;27024;54.068;12.116;2023-09-12T14:13:21;9.65;;;6.22;;
583;SDS011;27024;54.068;12.116;2023-09-12T14:15:49;11.43;;;6.70;;
583;SDS011;27024;54.068;12.116;2023-09-12T14:18:19;10.07;;;6.38;;
583;SDS011;27024;54.068;12.116;2023-09-12T14:20:48;10.57;;;7.00;;
583;SDS011;27024;54.068;12.116;2023-09-12T14:23:16;14.85;;;7.00;;
583;SDS011;27024;54.068;12.116;2023-09-12T14:25:43;11.55;;;6.47;;
583;SDS011;27024;54.068;12.116;2023-09-12T14:28:12;9.45;;;7.18;;
583;SDS011;27024;54.068;12.116;2023-09-12T14:30:41;16.10;;;7.97;;
583;SDS011;27024;54.068;12.116;2023-09-12T14:33:11;12.65;;;9.15;;
583;SDS011;27024;54.068;12.116;2023-09-12T14:35:42;10.32;;;7.43;;
583;SDS011;27024;54.068;12.116;2023-09-12T14:38:10;11.65;;;6.90;;
583;SDS011;27024;54.068;12.116;2023-09-12T14:40:37;9.80;;;8.02;;
583;SDS011;27024;54.068;12.116;2023-09-12T14:43:04;13.75;;;7.95;;
583;SDS011;27024;54.068;12.116;2023-09-12T14:45:32;11.77;;;8.43;;
583;SDS011;27024;54.068;12.116;2023-09-12T14:48:00;16.15;;;9.70;;
583;SDS011;27024;54.068;12.116;2023-09-12T14:50:27;15.55;;;8.23;;
583;SDS011;27024;54.068;12.116;2023-09-12T14:53:07;13.68;;;8.85;;
583;SDS011;27024;54.068;12.116;2023-09-12T14:55:34;13.95;;;9.50;;
583;SDS011;27024;54.068;12.116;2023-09-12T14:58:01;14.85;;;9.43;;
583;SDS011;27024;54.068;12.116;2023-09-12T15:00:28;15.50;;;10.23;;
583;SDS011;27024;54.068;12.116;2023-09-12T15:02:57;18.23;;;11.52;;
583;SDS011;27024;54.068;12.116;2023-09-12T15:05:24;16.75;;;12.30;;
583;SDS011;27024;54.068;12.116;2023-09-12T15:07:51;16.92;;;12.15;;
583;SDS011;27024;54.068;12.116;2023-09-12T15:10:18;16.33;;;11.90;;